Time,TemperatureF,DewpointF,PressureIn,WindDirection,WindDirectionDegrees,WindSpeedMPH,WindSpeedGustMPH,Humidity,HourlyPrecipIn,Conditions,Clouds,dailyrainin,SoftwareType,DateUTC
2013-06-21 00:04:00,59.2,46.6,30.41,East,92,0.0,0.0,63,0.00,NA,NA,-99.99,VWS Version 10.38,2013-06-21 04:04:00,
2013-06-21 00:09:00,59.2,46.6,30.41,East,92,0.0,0.0,63,0.00,NA,NA,-99.99,VWS Version 10.38,2013-06-21 04:09:00,
2013-06-21 00:19:00,58.8,47.1,30.41,East,85,0.0,0.0,65,0.00,NA,NA,-99.99,VWS Version 10.38,2013-06-21 04:19:00,
2013-06-21 00:24:00,58.8,47.5,30.41,East,85,0.0,0.0,66,0.00,NA,NA,-99.99,VWS Version 10.38,2013-06-21 04:24:00,
2013-06-21 00:29:00,58.6,47.3,30.41,East,85,0.0,0.0,66,0.00,NA,NA,-99.99,VWS Version 10.38,2013-06-21 04:29:00,
2013-06-21 00:34:00,58.5,47.6,30.41,East,85,0.0,0.0,67,0.00,NA,NA,-99.99,VWS Version 10.38,2013-06-21 04:34:00,
2013-06-21 00:39:00,58.3,47.4,30.41,East,85,0.0,0.0,67,0.00,NA,NA,-99.99,VWS Version 10.38,2013-06-21 04:39:00,
2013-06-21 00:49:00,57.9,47.4,30.41,East,85,0.0,0.0,68,0.00,NA,NA,-99.99,VWS Version 10.38,2013-06-21 04:49:00,
2013-06-21 00:54:00,57.7,47.7,30.41,East,85,0.0,0.0,69,0.00,NA,NA,-99.99,VWS Version 10.38,2013-06-21 04:54:00,
2013-06-21 00:59:00,57.6,47.5,30.41,East,85,0.0,0.0,69,0.00,NA,NA,-99.99,VWS Version 10.38,2013-06-21 04:59:00,
2013-06-21 01:04:00,57.6,47.9,30.41,East,85,0.0,0.0,70,0.00,NA,NA,-99.99,VWS Version 10.38,2013-06-21 05:04:00,
2013-06-21 01:09:00,57.4,47.7,30.41,East,85,0.0,0.0,70,0.00,NA,NA,-99.99,VWS Version 10.38,2013-06-21 05:09:00,
2013-06-21 01:14:00,57.2,47.9,30.41,East,85,0.0,0.0,71,0.00,NA,NA,-99.99,VWS Version 10.38,2013-06-21 05:14:00,
2013-06-21 01:24:00,57.0,48.1,30.41,East,85,0.0,0.0,72,0.00,NA,NA,-99.99,VWS Version 10.38,2013-06-21 05:24:00,
2013-06-21 01:29:00,57.0,48.1,30.41,East,85,0.0,0.0,72,0.00,NA,NA,-99.99,VWS Version 10.38,2013-06-21 05:29:00,
2013-06-21 01:34:00,56.8,48.3,30.41,East,85,0.0,0.0,73,0.00,NA,NA,-99.99,VWS Version 10.38,2013-06-21 05:34:00,
2013-06-21 01:39:00,56.8,48.3,30.41,East,85,0.0,0.0,73,0.00,NA,NA,-99.99,VWS Version 10.38,2013-06-21 05:39:00,
2013-06-21 01:44:00,56.7,48.5,30.41,East,85,0.0,0.0,74,0.00,NA,NA,-99.99,VWS Version 10.38,2013-06-21 05:44:00,
2013-06-21 01:50:00,56.7,48.5,30.41,East,85,0.0,0.0,74,0.00,NA,NA,-99.99,VWS Version 10.38,2013-06-21 05:50:00,
2013-06-21 01:55:00,56.7,48.5,30.41,East,85,0.0,0.0,74,0.00,NA,NA,-99.99,VWS Version 10.38,2013-06-21 05:55:00,
2013-06-21 02:00:00,56.7,48.8,30.41,East,85,0.0,0.0,75,0.00,NA,NA,-99.99,VWS Version 10.38,2013-06-21 06:00:00,
2013-06-21 02:05:00,56.7,48.8,30.41,East,85,0.0,0.0,75,0.00,NA,NA,-99.99,VWS Version 10.38,2013-06-21 06:05:00,
2013-06-21 02:15:00,56.5,49.0,30.41,East,85,0.0,0.0,76,0.00,NA,NA,-99.99,VWS Version 10.38,2013-06-21 06:15:00,
2013-06-21 02:20:00,56.5,49.0,30.41,East,85,0.0,0.0,76,0.00,NA,NA,-99.99,VWS Version 10.38,2013-06-21 06:20:00,
2013-06-21 02:25:00,56.3,48.8,30.41,East,85,0.0,0.0,76,0.00,NA,NA,-99.99,VWS Version 10.38,2013-06-21 06:25:00,
2013-06-21 02:35:00,56.3,49.2,30.41,East,85,0.0,0.0,77,0.00,NA,NA,-99.99,VWS Version 10.38,2013-06-21 06:35:00,
2013-06-21 02:45:00,56.3,49.5,30.41,East,85,0.0,0.0,78,0.00,NA,NA,-99.99,VWS Version 10.38,2013-06-21 06:45:00,
2013-06-21 02:50:00,56.1,49.4,30.41,East,85,0.0,0.0,78,0.00,NA,NA,-99.99,VWS Version 10.38,2013-06-21 06:50:00,
2013-06-21 02:55:00,56.1,49.4,30.41,East,85,0.0,0.0,78,0.00,NA,NA,-99.99,VWS Version 10.38,2013-06-21 06:55:00,
2013-06-21 03:00:00,55.9,49.2,30.41,East,85,0.0,0.0,78,0.00,NA,NA,-99.99,VWS Version 10.38,2013-06-21 07:00:00,
2013-06-21 03:05:00,55.9,49.2,30.41,East,85,0.0,0.0,78,0.00,NA,NA,-99.99,VWS Version 10.38,2013-06-21 07:05:00,
2013-06-21 03:10:00,55.9,49.5,30.41,East,85,0.0,0.0,79,0.00,NA,NA,-99.99,VWS Version 10.38,2013-06-21 07:10:00,
2013-06-21 03:20:00,55.9,49.5,30.41,East,85,0.0,0.0,79,0.00,NA,NA,-99.99,VWS Version 10.38,2013-06-21 07:20:00,
2013-06-21 03:30:00,55.8,49.4,30.41,East,85,0.0,0.0,79,0.00,NA,NA,-99.99,VWS Version 10.38,2013-06-21 07:30:00,
2013-06-21 03:35:00,55.6,49.5,30.41,East,85,0.0,0.0,80,0.00,NA,NA,-99.99,VWS Version 10.38,2013-06-21 07:35:00,
2013-06-21 03:40:00,55.6,49.5,30.41,East,85,0.0,0.0,80,0.00,NA,NA,-99.99,VWS Version 10.38,2013-06-21 07:40:00,
2013-06-21 03:49:00,55.4,49.3,30.41,East,85,0.0,0.0,80,0.00,NA,NA,-99.99,VWS Version 10.38,2013-06-21 07:49:00,
2013-06-21 03:54:00,55.4,49.7,30.41,East,85,0.0,0.0,81,0.00,NA,NA,-99.99,VWS Version 10.38,2013-06-21 07:54:00,
2013-06-21 03:59:00,55.4,49.7,30.41,East,85,0.0,0.0,81,0.00,NA,NA,-99.99,VWS Version 10.38,2013-06-21 07:59:00,
2013-06-21 04:04:00,55.4,49.7,30.41,East,85,0.0,0.0,81,0.00,NA,NA,-99.99,VWS Version 10.38,2013-06-21 08:04:00,
2013-06-21 04:14:00,55.4,49.7,30.41,East,85,0.0,0.0,81,0.00,NA,NA,-99.99,VWS Version 10.38,2013-06-21 08:14:00,
2013-06-21 04:24:00,55.0,49.7,30.41,East,85,0.0,0.0,82,0.00,NA,NA,-99.99,VWS Version 10.38,2013-06-21 08:24:00,
2013-06-21 04:29:00,55.0,49.7,30.41,East,85,0.0,0.0,82,0.00,NA,NA,-99.99,VWS Version 10.38,2013-06-21 08:29:00,
2013-06-21 04:34:00,54.9,49.5,30.41,East,85,0.0,0.0,82,0.00,NA,NA,-99.99,VWS Version 10.38,2013-06-21 08:34:00,
2013-06-21 04:39:00,54.9,49.5,30.41,East,85,0.0,0.0,82,0.00,NA,NA,-99.99,VWS Version 10.38,2013-06-21 08:39:00,
2013-06-21 04:44:00,54.9,49.5,30.41,East,85,0.0,0.0,82,0.00,NA,NA,-99.99,VWS Version 10.38,2013-06-21 08:44:00,
2013-06-21 04:49:00,54.7,49.3,30.41,East,85,0.0,0.0,82,0.00,NA,NA,-99.99,VWS Version 10.38,2013-06-21 08:49:00,
2013-06-21 04:59:00,54.7,49.6,30.41,East,85,0.0,0.0,83,0.00,NA,NA,-99.99,VWS Version 10.38,2013-06-21 08:59:00,
2013-06-21 05:04:00,54.5,49.5,30.41,East,85,0.0,0.0,83,0.00,NA,NA,-99.99,VWS Version 10.38,2013-06-21 09:04:00,
2013-06-21 05:09:00,54.5,49.5,30.41,East,85,0.0,0.0,83,0.00,NA,NA,-99.99,VWS Version 10.38,2013-06-21 09:09:00,
2013-06-21 05:14:00,54.5,49.5,30.41,East,85,0.0,0.0,83,0.00,NA,NA,-99.99,VWS Version 10.38,2013-06-21 09:14:00,
2013-06-21 05:19:00,54.5,49.5,30.41,East,85,0.0,0.0,83,0.00,NA,NA,-99.99,VWS Version 10.38,2013-06-21 09:19:00,
2013-06-21 05:24:00,54.5,49.8,30.41,East,85,0.0,0.0,84,0.00,NA,NA,-99.99,VWS Version 10.38,2013-06-21 09:24:00,
2013-06-21 05:29:00,54.5,49.8,30.41,East,85,0.0,0.0,84,0.00,NA,NA,-99.99,VWS Version 10.38,2013-06-21 09:29:00,
2013-06-21 05:34:00,54.5,49.8,30.41,East,85,0.0,0.0,84,0.00,NA,NA,-99.99,VWS Version 10.38,2013-06-21 09:34:00,
2013-06-21 05:39:00,54.5,49.8,30.41,East,85,0.0,0.0,84,0.00,NA,NA,-99.99,VWS Version 10.38,2013-06-21 09:39:00,
2013-06-21 05:44:00,54.7,50.0,30.41,East,85,0.0,0.0,84,0.00,NA,NA,-99.99,VWS Version 10.38,2013-06-21 09:44:00,
2013-06-21 05:49:00,54.7,50.0,30.41,East,85,0.0,0.0,84,0.00,NA,NA,-99.99,VWS Version 10.38,2013-06-21 09:49:00,
2013-06-21 05:54:00,54.9,50.1,30.41,East,85,0.0,0.0,84,0.00,NA,NA,-99.99,VWS Version 10.38,2013-06-21 09:54:00,
2013-06-21 05:59:00,54.9,50.4,30.41,East,85,0.0,0.0,85,0.00,NA,NA,-99.99,VWS Version 10.38,2013-06-21 09:59:00,
2013-06-21 06:04:00,55.0,50.6,30.41,East,85,0.0,0.0,85,0.00,NA,NA,-99.99,VWS Version 10.38,2013-06-21 10:04:00,
2013-06-21 06:09:00,55.2,50.8,30.41,East,85,0.0,0.0,85,0.00,NA,NA,-99.99,VWS Version 10.38,2013-06-21 10:09:00,
2013-06-21 06:14:00,55.4,51.0,30.41,East,85,0.0,0.0,85,0.00,NA,NA,-99.99,VWS Version 10.38,2013-06-21 10:14:00,
2013-06-21 06:19:00,55.8,51.3,30.41,East,85,0.0,0.0,85,0.00,NA,NA,-99.99,VWS Version 10.38,2013-06-21 10:19:00,
2013-06-21 06:24:00,55.9,51.5,30.41,East,85,0.0,0.0,85,0.00,NA,NA,-99.99,VWS Version 10.38,2013-06-21 10:24:00,
2013-06-21 06:29:00,56.3,52.2,30.41,East,85,0.0,0.0,86,0.00,NA,NA,-99.99,VWS Version 10.38,2013-06-21 10:29:00,
2013-06-21 06:34:00,56.5,52.3,30.41,East,85,0.0,0.0,86,0.00,NA,NA,-99.99,VWS Version 10.38,2013-06-21 10:34:00,
2013-06-21 06:39:00,56.8,52.7,30.41,East,85,0.0,0.0,86,0.00,NA,NA,-99.99,VWS Version 10.38,2013-06-21 10:39:00,
2013-06-21 06:44:00,57.6,53.4,30.41,East,85,0.0,0.0,86,0.00,NA,NA,-99.99,VWS Version 10.38,2013-06-21 10:44:00,
2013-06-21 06:49:00,63.0,59.7,30.41,East,85,0.0,0.0,89,0.00,NA,NA,-99.99,VWS Version 10.38,2013-06-21 10:49:00,
2013-06-21 06:54:00,69.1,66.0,30.41,East,86,0.0,0.0,90,0.00,NA,NA,-99.99,VWS Version 10.38,2013-06-21 10:54:00,
2013-06-21 06:59:00,73.6,70.5,30.41,East,86,0.0,0.0,90,0.00,NA,NA,-99.99,VWS Version 10.38,2013-06-21 10:59:00,
2013-06-21 07:04:00,76.5,72.7,30.41,East,86,0.0,0.0,88,0.00,NA,NA,-99.99,VWS Version 10.38,2013-06-21 11:04:00,
2013-06-21 07:09:00,78.6,61.6,30.41,East,86,0.0,0.0,56,0.00,NA,NA,-99.99,VWS Version 10.38,2013-06-21 11:09:00,
2013-06-21 07:14:00,84.4,56.7,30.41,NE,34,0.0,0.0,39,0.00,NA,NA,-99.99,VWS Version 10.38,2013-06-21 11:14:00,
2013-06-21 07:19:00,89.2,51.9,30.41,NE,34,0.0,0.0,28,0.00,NA,NA,-99.99,VWS Version 10.38,2013-06-21 11:19:00,
2013-06-21 07:24:00,91.0,47.0,30.41,NE,34,0.0,0.0,22,0.00,NA,NA,-99.99,VWS Version 10.38,2013-06-21 11:24:00,
2013-06-21 07:29:00,89.4,44.4,30.41,ESE,105,0.0,0.0,21,0.00,NA,NA,-99.99,VWS Version 10.38,2013-06-21 11:29:00,
2013-06-21 07:34:00,86.2,42.9,30.41,ESE,114,0.0,0.0,22,0.00,NA,NA,-99.99,VWS Version 10.38,2013-06-21 11:34:00,
2013-06-21 07:39:00,82.9,42.5,30.41,WSW,252,0.0,0.0,24,0.00,NA,NA,-99.99,VWS Version 10.38,2013-06-21 11:39:00,
2013-06-21 07:44:00,81.1,44.0,30.41,SE,124,0.0,0.0,27,0.00,NA,NA,-99.99,VWS Version 10.38,2013-06-21 11:44:00,
2013-06-21 07:49:00,80.1,45.9,30.41,SW,232,0.0,0.0,30,0.00,NA,NA,-99.99,VWS Version 10.38,2013-06-21 11:49:00,
2013-06-21 07:54:00,79.3,45.2,30.41,SSE,157,0.0,0.0,30,0.00,NA,NA,-99.99,VWS Version 10.38,2013-06-21 11:54:00,
2013-06-21 07:59:00,78.8,44.8,30.41,SSW,209,0.0,0.0,30,0.00,NA,NA,-99.99,VWS Version 10.38,2013-06-21 11:59:00,
2013-06-21 08:04:00,78.4,45.3,30.41,SW,223,2.7,2.7,31,0.00,NA,NA,-99.99,VWS Version 10.38,2013-06-21 12:04:00,
2013-06-21 08:09:00,77.7,44.7,30.41,WSW,241,0.0,0.0,31,0.00,NA,NA,-99.99,VWS Version 10.38,2013-06-21 12:09:00,
2013-06-21 08:14:00,77.5,44.5,30.41,NNW,332,0.0,0.0,31,0.00,NA,NA,-99.99,VWS Version 10.38,2013-06-21 12:14:00,
2013-06-21 08:19:00,77.2,44.2,30.41,WSW,248,3.1,3.1,31,0.00,NA,NA,-99.99,VWS Version 10.38,2013-06-21 12:19:00,
2013-06-21 08:24:00,77.0,44.9,30.41,NNW,329,0.0,0.0,32,0.00,NA,NA,-99.99,VWS Version 10.38,2013-06-21 12:24:00,
2013-06-21 08:29:00,77.2,45.1,30.41,SSW,213,3.6,3.6,32,0.00,NA,NA,-99.99,VWS Version 10.38,2013-06-21 12:29:00,
2013-06-21 08:34:00,77.0,44.1,30.41,NNE,18,2.2,2.2,31,0.00,NA,NA,-99.99,VWS Version 10.38,2013-06-21 12:34:00,
2013-06-21 08:39:00,77.2,45.1,30.41,SW,228,3.1,3.1,32,0.00,NA,NA,-99.99,VWS Version 10.38,2013-06-21 12:39:00,
2013-06-21 08:44:00,77.2,45.1,30.41,SW,222,3.1,3.1,32,0.00,NA,NA,-99.99,VWS Version 10.38,2013-06-21 12:44:00,
2013-06-21 08:49:00,77.4,45.2,30.41,WSW,246,0.0,0.0,32,0.00,NA,NA,-99.99,VWS Version 10.38,2013-06-21 12:49:00,
2013-06-21 08:54:00,77.7,45.5,30.41,West,275,0.0,0.0,32,0.00,NA,NA,-99.99,VWS Version 10.38,2013-06-21 12:54:00,
2013-06-21 08:59:00,78.1,46.7,30.41,West,267,0.0,0.0,33,0.00,NA,NA,-99.99,VWS Version 10.38,2013-06-21 12:59:00,
2013-06-21 09:04:00,78.4,46.2,30.41,WNW,287,4.0,4.0,32,0.00,NA,NA,-99.99,VWS Version 10.38,2013-06-21 13:04:00,
2013-06-21 09:09:00,78.4,46.2,30.41,WSW,253,3.1,3.1,32,0.00,NA,NA,-99.99,VWS Version 10.38,2013-06-21 13:09:00,
2013-06-21 09:19:00,79.2,46.0,30.41,NW,325,5.8,5.8,31,0.00,NA,NA,-99.99,VWS Version 10.38,2013-06-21 13:19:00,
2013-06-21 09:24:00,79.2,46.0,30.41,WNW,284,4.0,4.0,31,0.00,NA,NA,-99.99,VWS Version 10.38,2013-06-21 13:24:00,
2013-06-21 09:29:00,79.2,46.0,30.41,West,272,4.0,4.0,31,0.00,NA,NA,-99.99,VWS Version 10.38,2013-06-21 13:29:00,
2013-06-21 09:34:00,79.7,46.4,30.41,WNW,298,5.4,5.4,31,0.00,NA,NA,-99.99,VWS Version 10.38,2013-06-21 13:34:00,
2013-06-21 09:39:00,79.7,46.4,30.41,NW,320,0.0,0.0,31,0.00,NA,NA,-99.99,VWS Version 10.38,2013-06-21 13:39:00,
2013-06-21 09:44:00,79.9,45.7,30.41,SW,225,2.7,2.7,30,0.00,NA,NA,-99.99,VWS Version 10.38,2013-06-21 13:44:00,
2013-06-21 09:49:00,80.1,46.7,30.41,SE,135,4.9,4.9,31,0.00,NA,NA,-99.99,VWS Version 10.38,2013-06-21 13:49:00,
2013-06-21 09:54:00,80.1,46.7,30.41,WNW,299,2.7,2.7,31,0.00,NA,NA,-99.99,VWS Version 10.38,2013-06-21 13:54:00,
2013-06-21 09:59:00,80.1,46.7,30.41,SW,221,4.5,4.5,31,0.00,NA,NA,-99.99,VWS Version 10.38,2013-06-21 13:59:00,
2013-06-21 10:04:00,80.1,46.7,30.41,SSW,212,3.1,3.1,31,0.00,NA,NA,-99.99,VWS Version 10.38,2013-06-21 14:04:00,
2013-06-21 10:09:00,81.3,47.0,30.41,West,280,2.7,2.7,30,0.00,NA,NA,-99.99,VWS Version 10.38,2013-06-21 14:09:00,
2013-06-21 10:14:00,81.7,47.3,30.41,SW,217,0.0,0.0,30,0.00,NA,NA,-99.99,VWS Version 10.38,2013-06-21 14:14:00,
2013-06-21 10:19:00,81.7,47.3,30.41,NW,319,6.3,6.3,30,0.00,NA,NA,-99.99,VWS Version 10.38,2013-06-21 14:19:00,
2013-06-21 10:24:00,81.7,47.3,30.41,WNW,292,4.0,4.0,30,0.00,NA,NA,-99.99,VWS Version 10.38,2013-06-21 14:24:00,
2013-06-21 10:29:00,81.7,47.3,30.41,SW,219,0.0,0.0,30,0.00,NA,NA,-99.99,VWS Version 10.38,2013-06-21 14:29:00,
2013-06-21 10:34:00,81.7,47.3,30.41,SE,132,2.7,2.7,30,0.00,NA,NA,-99.99,VWS Version 10.38,2013-06-21 14:34:00,
2013-06-21 15:00:00,85.1,49.3,30.38,South,181,3.1,3.1,29,0.00,NA,NA,-99.99,VWS Version 10.38,2013-06-21 19:00:00,
2013-06-21 15:05:00,85.1,49.3,30.38,SW,215,3.1,3.1,29,0.00,NA,NA,-99.99,VWS Version 10.38,2013-06-21 19:05:00,
2013-06-21 15:15:00,84.0,48.4,30.38,NW,315,0.0,0.0,29,0.00,NA,NA,-99.99,VWS Version 10.38,2013-06-21 19:15:00,
2013-06-21 15:20:00,83.3,48.7,30.38,SSW,207,2.7,2.7,30,0.00,NA,NA,-99.99,VWS Version 10.38,2013-06-21 19:20:00,
2013-06-21 15:25:00,83.3,47.8,30.38,East,99,2.7,2.7,29,0.00,NA,NA,-99.99,VWS Version 10.38,2013-06-21 19:25:00,
2013-06-21 15:30:00,82.8,47.3,30.38,SW,218,4.0,4.0,29,0.00,NA,NA,-99.99,VWS Version 10.38,2013-06-21 19:30:00,
2013-06-21 15:35:00,82.9,48.3,30.38,SSW,202,0.0,0.0,30,0.00,NA,NA,-99.99,VWS Version 10.38,2013-06-21 19:35:00,
2013-06-21 15:40:00,83.8,48.2,30.38,SSW,204,5.4,5.4,29,0.00,NA,NA,-99.99,VWS Version 10.38,2013-06-21 19:40:00,
2013-06-21 15:45:00,84.4,48.7,30.38,SSW,212,4.9,4.9,29,0.00,NA,NA,-99.99,VWS Version 10.38,2013-06-21 19:45:00,
2013-06-21 15:50:00,85.1,49.3,30.38,SW,216,2.7,2.7,29,0.00,NA,NA,-99.99,VWS Version 10.38,2013-06-21 19:50:00,
2013-06-21 15:55:00,85.3,49.5,30.38,SW,226,5.4,5.4,29,0.00,NA,NA,-99.99,VWS Version 10.38,2013-06-21 19:55:00,
2013-06-21 16:00:00,84.7,49.0,30.38,SSW,208,2.7,2.7,29,0.00,NA,NA,-99.99,VWS Version 10.38,2013-06-21 20:00:00,
2013-06-21 16:05:00,84.0,48.4,30.38,SSE,156,0.0,0.0,29,0.00,NA,NA,-99.99,VWS Version 10.38,2013-06-21 20:05:00,
2013-06-21 16:10:00,83.5,47.9,30.35,WSW,252,2.7,2.7,29,0.00,NA,NA,-99.99,VWS Version 10.38,2013-06-21 20:10:00,
2013-06-21 16:20:00,83.1,47.6,30.35,NW,319,6.3,6.3,29,0.00,NA,NA,-99.99,VWS Version 10.38,2013-06-21 20:20:00,
2013-06-21 16:25:00,83.3,47.8,30.35,NW,308,5.8,5.8,29,0.00,NA,NA,-99.99,VWS Version 10.38,2013-06-21 20:25:00,
2013-06-21 16:30:00,83.1,47.6,30.35,WSW,254,2.7,2.7,29,0.00,NA,NA,-99.99,VWS Version 10.38,2013-06-21 20:30:00,
2013-06-21 16:35:00,82.9,47.5,30.35,WSW,237,5.4,5.4,29,0.00,NA,NA,-99.99,VWS Version 10.38,2013-06-21 20:35:00,
2013-06-21 16:40:00,82.9,48.3,30.35,South,169,5.8,5.8,30,0.00,NA,NA,-99.99,VWS Version 10.38,2013-06-21 20:40:00,
2013-06-21 16:50:00,82.8,47.3,30.35,SSW,205,2.7,2.7,29,0.00,NA,NA,-99.99,VWS Version 10.38,2013-06-21 20:50:00,
2013-06-21 16:55:00,82.6,47.1,30.35,SSW,193,3.6,3.6,29,0.00,NA,NA,-99.99,VWS Version 10.38,2013-06-21 20:55:00,
2013-06-21 17:00:00,82.6,47.1,30.35,SW,216,3.1,3.1,29,0.00,NA,NA,-99.99,VWS Version 10.38,2013-06-21 21:00:00,
2013-06-21 17:10:00,82.2,47.7,30.35,WNW,286,4.0,4.0,30,0.00,NA,NA,-99.99,VWS Version 10.38,2013-06-21 21:10:00,
2013-06-21 17:15:00,82.0,47.6,30.35,South,180,2.7,2.7,30,0.00,NA,NA,-99.99,VWS Version 10.38,2013-06-21 21:15:00,
2013-06-21 17:25:00,81.5,47.1,30.35,ESE,112,3.6,3.6,30,0.00,NA,NA,-99.99,VWS Version 10.38,2013-06-21 21:25:00,
2013-06-21 17:30:00,81.1,46.8,30.35,SSE,147,4.0,4.0,30,0.00,NA,NA,-99.99,VWS Version 10.38,2013-06-21 21:30:00,
2013-06-21 17:35:00,80.8,47.4,30.35,SE,140,3.1,3.1,31,0.00,NA,NA,-99.99,VWS Version 10.38,2013-06-21 21:35:00,
2013-06-21 17:40:00,80.4,47.0,30.35,SSW,209,0.0,0.0,31,0.00,NA,NA,-99.99,VWS Version 10.38,2013-06-21 21:40:00,
2013-06-21 17:45:00,80.2,46.9,30.35,SW,227,3.1,3.1,31,0.00,NA,NA,-99.99,VWS Version 10.38,2013-06-21 21:45:00,
2013-06-21 17:55:00,79.5,46.3,30.35,SW,218,0.0,0.0,31,0.00,NA,NA,-99.99,VWS Version 10.38,2013-06-21 21:55:00,
2013-06-21 18:00:00,79.0,45.8,30.35,SSE,164,0.0,0.0,31,0.00,NA,NA,-99.99,VWS Version 10.38,2013-06-21 22:00:00,
2013-06-21 18:05:00,78.3,46.0,30.35,SW,221,2.7,2.7,32,0.00,NA,NA,-99.99,VWS Version 10.38,2013-06-21 22:05:00,
2013-06-21 18:10:00,77.9,45.7,30.35,East,94,2.7,2.7,32,0.00,NA,NA,-99.99,VWS Version 10.38,2013-06-21 22:10:00,
2013-06-21 18:15:00,77.4,45.2,30.35,East,92,2.7,2.7,32,0.00,NA,NA,-99.99,VWS Version 10.38,2013-06-21 22:15:00,
2013-06-21 18:25:00,76.8,45.6,30.35,South,190,2.7,2.7,33,0.00,NA,NA,-99.99,VWS Version 10.38,2013-06-21 22:25:00,
2013-06-21 18:30:00,76.5,45.2,30.35,SW,222,0.0,0.0,33,0.00,NA,NA,-99.99,VWS Version 10.38,2013-06-21 22:30:00,
2013-06-21 18:40:00,76.1,44.9,30.35,SE,128,0.0,0.0,33,0.00,NA,NA,-99.99,VWS Version 10.38,2013-06-21 22:40:00,
2013-06-21 18:45:00,75.9,44.8,30.35,SE,128,2.2,2.2,33,0.00,NA,NA,-99.99,VWS Version 10.38,2013-06-21 22:45:00,
2013-06-21 18:55:00,75.6,44.5,30.35,South,186,3.6,3.6,33,0.00,NA,NA,-99.99,VWS Version 10.38,2013-06-21 22:55:00,
2013-06-21 19:00:00,75.4,44.3,30.35,SE,143,0.0,0.0,33,0.00,NA,NA,-99.99,VWS Version 10.38,2013-06-21 23:00:00,
2013-06-21 19:05:00,75.0,44.0,30.35,East,100,0.0,0.0,33,0.00,NA,NA,-99.99,VWS Version 10.38,2013-06-21 23:05:00,
2013-06-21 19:10:00,75.0,44.0,30.38,SSE,155,2.2,2.2,33,0.00,NA,NA,-99.99,VWS Version 10.38,2013-06-21 23:10:00,
2013-06-21 19:15:00,74.3,43.4,30.38,SW,219,0.0,0.0,33,0.00,NA,NA,-99.99,VWS Version 10.38,2013-06-21 23:15:00,
2013-06-21 19:24:00,73.6,42.7,30.38,SSW,202,0.0,0.0,33,0.00,NA,NA,-99.99,VWS Version 10.38,2013-06-21 23:24:00,
2013-06-21 19:29:00,73.6,42.7,30.38,SSE,149,3.1,3.1,33,0.00,NA,NA,-99.99,VWS Version 10.38,2013-06-21 23:29:00,
2013-06-21 19:34:00,72.9,42.9,30.38,SE,142,2.7,2.7,34,0.00,NA,NA,-99.99,VWS Version 10.38,2013-06-21 23:34:00,
2013-06-21 19:39:00,72.5,42.6,30.38,ESE,117,0.0,0.0,34,0.00,NA,NA,-99.99,VWS Version 10.38,2013-06-21 23:39:00,
2013-06-21 19:44:00,72.5,42.6,30.38,ESE,123,0.0,0.0,34,0.00,NA,NA,-99.99,VWS Version 10.38,2013-06-21 23:44:00,
2013-06-21 19:49:00,72.5,42.6,30.38,ESE,102,2.7,2.7,34,0.00,NA,NA,-99.99,VWS Version 10.38,2013-06-21 23:49:00,
2013-06-21 19:54:00,72.5,42.6,30.38,ESE,114,0.0,0.0,34,0.00,NA,NA,-99.99,VWS Version 10.38,2013-06-21 23:54:00,
2013-06-21 19:59:00,70.9,42.6,30.38,SE,127,0.0,0.0,36,0.00,NA,NA,-99.99,VWS Version 10.38,2013-06-21 23:59:00,
2013-06-21 20:04:00,70.9,42.6,30.38,ESE,120,0.0,0.0,36,0.00,NA,NA,-99.99,VWS Version 10.38,2013-06-22 00:04:00,
2013-06-21 20:09:00,70.9,42.6,30.38,SE,129,0.0,0.0,36,0.00,NA,NA,-99.99,VWS Version 10.38,2013-06-22 00:09:00,
2013-06-21 20:14:00,70.9,42.6,30.38,SSE,165,0.0,0.0,36,0.00,NA,NA,-99.99,VWS Version 10.38,2013-06-22 00:14:00,
2013-06-21 20:20:00,69.4,42.1,30.38,SSE,147,2.7,2.7,37,0.00,NA,NA,-99.99,VWS Version 10.38,2013-06-22 00:20:00,
2013-06-21 20:29:00,68.9,42.3,30.38,SSE,150,0.0,0.0,38,0.00,NA,NA,-99.99,VWS Version 10.38,2013-06-22 00:29:00,
2013-06-21 20:39:00,68.5,42.0,30.38,ESE,110,0.0,0.0,38,0.00,NA,NA,-99.99,VWS Version 10.38,2013-06-22 00:39:00,
2013-06-21 20:44:00,68.0,42.1,30.38,ESE,110,0.0,0.0,39,0.00,NA,NA,-99.99,VWS Version 10.38,2013-06-22 00:44:00,
2013-06-21 20:49:00,68.0,42.1,30.38,ESE,110,0.0,0.0,39,0.00,NA,NA,-99.99,VWS Version 10.38,2013-06-22 00:49:00,
2013-06-21 20:54:00,67.5,42.3,30.38,SE,133,0.0,0.0,40,0.00,NA,NA,-99.99,VWS Version 10.38,2013-06-22 00:54:00,
2013-06-21 20:59:00,67.5,42.3,30.38,SE,133,0.0,0.0,40,0.00,NA,NA,-99.99,VWS Version 10.38,2013-06-22 00:59:00,
2013-06-21 21:04:00,66.9,42.5,30.38,ESE,114,0.0,0.0,41,0.00,NA,NA,-99.99,VWS Version 10.38,2013-06-22 01:04:00,
2013-06-21 21:09:00,66.9,42.5,30.38,ESE,113,0.0,0.0,41,0.00,NA,NA,-99.99,VWS Version 10.38,2013-06-22 01:09:00,
2013-06-21 21:14:00,66.6,42.2,30.38,ESE,113,0.0,0.0,41,0.00,NA,NA,-99.99,VWS Version 10.38,2013-06-22 01:14:00,
2013-06-21 21:24:00,66.2,42.5,30.38,ESE,110,0.0,0.0,42,0.00,NA,NA,-99.99,VWS Version 10.38,2013-06-22 01:24:00,
2013-06-21 21:29:00,66.0,42.9,30.38,ESE,110,0.0,0.0,43,0.00,NA,NA,-99.99,VWS Version 10.38,2013-06-22 01:29:00,
2013-06-21 21:34:00,66.0,42.9,30.38,ESE,114,0.0,0.0,43,0.00,NA,NA,-99.99,VWS Version 10.38,2013-06-22 01:34:00,
2013-06-21 21:39:00,65.8,42.7,30.38,ESE,114,0.0,0.0,43,0.00,NA,NA,-99.99,VWS Version 10.38,2013-06-22 01:39:00,
2013-06-21 21:44:00,65.7,43.2,30.38,ESE,114,0.0,0.0,44,0.00,NA,NA,-99.99,VWS Version 10.38,2013-06-22 01:44:00,
2013-06-21 21:49:00,65.5,43.0,30.38,ESE,114,0.0,0.0,44,0.00,NA,NA,-99.99,VWS Version 10.38,2013-06-22 01:49:00,
2013-06-21 21:54:00,65.1,43.3,30.38,ESE,114,0.0,0.0,45,0.00,NA,NA,-99.99,VWS Version 10.38,2013-06-22 01:54:00,
2013-06-21 21:59:00,64.8,43.0,30.38,ESE,114,0.0,0.0,45,0.00,NA,NA,-99.99,VWS Version 10.38,2013-06-22 01:59:00,
2013-06-21 22:09:00,63.9,43.8,30.38,ESE,114,0.0,0.0,48,0.00,NA,NA,-99.99,VWS Version 10.38,2013-06-22 02:09:00,
2013-06-21 22:14:00,63.5,43.5,30.38,ESE,114,0.0,0.0,48,0.00,NA,NA,-99.99,VWS Version 10.38,2013-06-22 02:14:00,
2013-06-21 22:19:00,63.1,44.2,30.38,ESE,114,0.0,0.0,50,0.00,NA,NA,-99.99,VWS Version 10.38,2013-06-22 02:19:00,
2013-06-21 22:24:00,63.0,44.6,30.38,ESE,114,0.0,0.0,51,0.00,NA,NA,-99.99,VWS Version 10.38,2013-06-22 02:24:00,
2013-06-21 22:29:00,62.6,44.8,30.38,ESE,114,0.0,0.0,52,0.00,NA,NA,-99.99,VWS Version 10.38,2013-06-22 02:29:00,
2013-06-21 22:34:00,62.4,45.1,30.38,ESE,114,0.0,0.0,53,0.00,NA,NA,-99.99,VWS Version 10.38,2013-06-22 02:34:00,
2013-06-21 22:39:00,62.2,44.9,30.38,ESE,114,0.0,0.0,53,0.00,NA,NA,-99.99,VWS Version 10.38,2013-06-22 02:39:00,
2013-06-21 22:44:00,61.9,45.1,30.38,ESE,114,0.0,0.0,54,0.00,NA,NA,-99.99,VWS Version 10.38,2013-06-22 02:44:00,
2013-06-21 22:54:00,61.7,45.4,30.38,ESE,114,0.0,0.0,55,0.00,NA,NA,-99.99,VWS Version 10.38,2013-06-22 02:54:00,
2013-06-21 22:59:00,61.3,45.5,30.38,ESE,114,0.0,0.0,56,0.00,NA,NA,-99.99,VWS Version 10.38,2013-06-22 02:59:00,
2013-06-21 23:04:00,61.2,45.8,30.38,ESE,114,0.0,0.0,57,0.00,NA,NA,-99.99,VWS Version 10.38,2013-06-22 03:04:00,
2013-06-21 23:09:00,61.0,45.7,30.38,ESE,114,0.0,0.0,57,0.00,NA,NA,-99.99,VWS Version 10.38,2013-06-22 03:09:00,
2013-06-21 23:14:00,60.8,46.4,30.38,ESE,114,0.0,0.0,59,0.00,NA,NA,-99.99,VWS Version 10.38,2013-06-22 03:14:00,
2013-06-21 23:19:00,60.6,46.7,30.38,ESE,114,0.0,0.0,60,0.00,NA,NA,-99.99,VWS Version 10.38,2013-06-22 03:19:00,
2013-06-21 23:24:00,60.4,46.9,30.38,ESE,114,0.0,0.0,61,0.00,NA,NA,-99.99,VWS Version 10.38,2013-06-22 03:24:00,
2013-06-21 23:29:00,60.4,46.9,30.38,ESE,114,0.0,0.0,61,0.00,NA,NA,-99.99,VWS Version 10.38,2013-06-22 03:29:00,
2013-06-21 23:39:00,60.1,47.0,30.38,ESE,114,0.0,0.0,62,0.00,NA,NA,-99.99,VWS Version 10.38,2013-06-22 03:39:00,
2013-06-21 23:44:00,59.9,47.3,30.38,ESE,114,0.0,0.0,63,0.00,NA,NA,-99.99,VWS Version 10.38,2013-06-22 03:44:00,
2013-06-21 23:49:00,59.7,47.5,30.38,ESE,114,0.0,0.0,64,0.00,NA,NA,-99.99,VWS Version 10.38,2013-06-22 03:49:00,
2013-06-21 23:54:00,59.7,47.5,30.38,ESE,114,0.0,0.0,64,0.00,NA,NA,-99.99,VWS Version 10.38,2013-06-22 03:54:00,
2013-06-21 23:59:00,59.5,47.8,30.38,ESE,114,0.0,0.0,65,0.00,NA,NA,-99.99,VWS Version 10.38,2013-06-22 03:59:00,